createdAt,value
2022-09-28T00:01:21.079Z,5.10
2022-09-28T00:03:51.333Z,5.07
2022-09-28T00:06:21.296Z,5.73
2022-09-28T00:08:51.200Z,5.00
2022-09-28T00:11:21.006Z,5.27
2022-09-28T00:13:51.438Z,5.27
2022-09-28T00:16:21.195Z,5.37
2022-09-28T00:18:51.256Z,4.90
2022-09-28T00:21:21.609Z,5.63
2022-09-28T00:24:10.783Z,5.57
2022-09-28T00:26:40.579Z,4.97
2022-09-28T00:29:14.056Z,6.10
2022-09-28T00:31:42.516Z,6.10
2022-09-28T00:34:10.631Z,5.73
2022-09-28T00:36:38.990Z,6.33
2022-09-28T00:39:09.684Z,5.33
2022-09-28T00:41:37.820Z,5.80
2022-09-28T00:44:36.976Z,5.90
2022-09-28T00:47:10.845Z,5.33
2022-09-28T00:49:44.376Z,5.73
2022-09-28T00:52:15.773Z,5.77
2022-09-28T00:54:48.098Z,6.07
2022-09-28T00:57:17.443Z,6.27
2022-09-28T00:59:45.749Z,6.37
2022-09-28T01:02:14.144Z,6.57
2022-09-28T01:04:42.648Z,5.93
2022-09-28T01:07:11.274Z,5.97
2022-09-28T01:09:40.739Z,6.97
2022-09-28T01:12:10.420Z,7.10
2022-09-28T01:14:38.824Z,6.90
2022-09-28T01:17:12.303Z,7.40
2022-09-28T01:20:00.251Z,7.27
2022-09-28T01:22:43.487Z,7.43
2022-09-28T01:25:14.391Z,7.27
2022-09-28T01:27:46.242Z,9.07
2022-09-28T01:30:17.716Z,8.30
2022-09-28T01:32:53.506Z,7.90
2022-09-28T01:35:27.049Z,8.77
2022-09-28T01:38:00.830Z,7.83
2022-09-28T01:40:31.208Z,8.40
2022-09-28T01:43:04.116Z,8.10
2022-09-28T01:45:37.953Z,8.87
2022-09-28T01:48:08.963Z,9.03
2022-09-28T01:50:39.741Z,9.03
2022-09-28T01:53:13.504Z,9.43
2022-09-28T01:55:46.084Z,10.60
2022-09-28T01:58:19.876Z,10.77
2022-09-28T02:00:53.500Z,10.63
2022-09-28T02:03:30.528Z,10.30
2022-09-28T02:06:01.871Z,11.47
2022-09-28T02:08:34.482Z,10.57
2022-09-28T02:11:07.075Z,12.43
2022-09-28T02:13:40.690Z,12.03
2022-09-28T02:16:15.634Z,11.80
2022-09-28T02:18:44.915Z,13.77
2022-09-28T02:21:17.353Z,12.77
2022-09-28T02:23:53.480Z,13.17
2022-09-28T02:26:26.129Z,13.83
2022-09-28T02:28:55.696Z,12.40
2022-09-28T02:31:24.222Z,13.33
2022-09-28T02:33:54.485Z,13.37
2022-09-28T02:36:23.649Z,11.87
2022-09-28T02:38:52.123Z,11.63
2022-09-28T02:41:32.039Z,13.37
2022-09-28T02:44:12.538Z,11.77
2022-09-28T02:46:48.223Z,12.37
2022-09-28T02:49:25.859Z,11.03
2022-09-28T02:52:19.473Z,10.27
2022-09-28T02:55:21.101Z,10.93
2022-09-28T02:58:06.770Z,10.10
2022-09-28T03:00:43.671Z,11.93
2022-09-28T03:03:22.129Z,10.60
2022-09-28T03:05:58.986Z,10.90
2022-09-28T03:08:32.451Z,12.63
2022-09-28T03:11:04.084Z,11.70
2022-09-28T03:13:34.493Z,11.70
2022-09-28T03:16:15.140Z,10.67
2022-09-28T03:18:44.360Z,11.87
2022-09-28T03:21:13.755Z,12.67
2022-09-28T03:23:42.114Z,12.33
2022-09-28T03:26:10.556Z,11.73
2022-09-28T03:28:38.868Z,12.77
2022-09-28T03:31:07.476Z,11.80
2022-09-28T03:33:36.904Z,15.03
2022-09-28T03:36:05.295Z,13.23
2022-09-28T03:38:33.589Z,15.87
2022-09-28T03:41:02.225Z,14.47
2022-09-28T03:43:31.921Z,13.93
2022-09-28T03:46:01.600Z,15.30
2022-09-28T03:48:32.913Z,14.83
2022-09-28T03:51:05.390Z,14.47
2022-09-28T03:53:34.719Z,15.37
2022-09-28T03:56:06.972Z,16.00
2022-09-28T03:58:35.550Z,15.63
2022-09-28T04:01:04.692Z,15.70
2022-09-28T04:03:32.970Z,16.63
2022-09-28T04:06:02.839Z,15.07
2022-09-28T04:08:31.427Z,16.00
2022-09-28T04:11:00.004Z,15.40
2022-09-28T04:13:28.901Z,17.10
2022-09-28T04:15:59.423Z,15.30
2022-09-28T04:18:27.733Z,15.53
2022-09-28T04:21:06.755Z,15.67
2022-09-28T04:23:35.741Z,15.40
2022-09-28T04:26:03.979Z,15.40
2022-09-28T04:28:49.865Z,15.43
2022-09-28T04:31:19.789Z,14.40
2022-09-28T04:33:48.083Z,13.43
2022-09-28T04:36:19.670Z,14.23
2022-09-28T04:38:53.291Z,13.00
2022-09-28T04:41:22.859Z,14.13
2022-09-28T04:43:51.366Z,12.83
2022-09-28T04:46:20.177Z,14.47
2022-09-28T04:48:48.568Z,12.60
2022-09-28T04:51:18.003Z,14.20
2022-09-28T04:53:46.306Z,13.80
2022-09-28T04:56:15.995Z,13.13
2022-09-28T04:58:49.109Z,13.07
2022-09-28T05:01:23.714Z,13.93
2022-09-28T05:03:52.286Z,14.27
2022-09-28T05:06:22.791Z,13.90
2022-09-28T05:08:50.821Z,14.17
2022-09-28T05:11:21.404Z,13.50
2022-09-28T05:13:50.426Z,13.80
2022-09-28T05:16:20.502Z,13.07
2022-09-28T05:18:48.967Z,14.90
2022-09-28T05:21:19.679Z,13.70
2022-09-28T05:23:49.208Z,13.67
2022-09-28T05:26:17.532Z,13.13
2022-09-28T05:28:45.910Z,14.80
2022-09-28T05:31:14.238Z,12.80
2022-09-28T05:33:42.565Z,13.10
2022-09-28T05:36:11.558Z,14.23
2022-09-28T05:38:40.049Z,13.87
2022-09-28T05:41:09.510Z,14.30
2022-09-28T05:43:38.457Z,13.83
2022-09-28T05:46:07.237Z,14.33
2022-09-28T05:48:35.326Z,13.37
2022-09-28T05:51:03.636Z,13.97
2022-09-28T05:53:32.035Z,14.43
2022-09-28T05:56:00.384Z,13.60
2022-09-28T05:58:30.430Z,13.23
2022-09-28T06:00:58.956Z,13.00
2022-09-28T06:03:27.345Z,13.20
2022-09-28T06:05:55.705Z,15.60
2022-09-28T06:08:24.074Z,14.67
2022-09-28T06:10:52.783Z,12.53
2022-09-28T06:13:21.076Z,13.60
2022-09-28T06:15:50.426Z,13.73
2022-09-28T06:18:18.777Z,14.07
2022-09-28T06:20:47.085Z,12.93
2022-09-28T06:23:15.397Z,11.93
2022-09-28T06:25:43.711Z,13.37
2022-09-28T06:28:13.305Z,15.10
2022-09-28T06:30:42.818Z,13.57
2022-09-28T06:33:15.065Z,14.87
2022-09-28T06:35:43.462Z,14.13
2022-09-28T06:38:12.137Z,14.90
2022-09-28T06:40:40.583Z,15.77
2022-09-28T06:43:12.575Z,14.80
2022-09-28T06:45:40.617Z,14.17
2022-09-28T06:48:10.449Z,14.77
2022-09-28T06:50:42.019Z,16.10
2022-09-28T06:53:13.616Z,16.53
2022-09-28T06:55:42.397Z,15.67
2022-09-28T06:58:13.005Z,16.13
2022-09-28T07:00:41.731Z,18.90
2022-09-28T07:03:12.763Z,18.17
2022-09-28T07:05:44.873Z,19.33
2022-09-28T07:08:13.307Z,18.50
2022-09-28T07:10:43.341Z,18.43
2022-09-28T07:13:35.727Z,19.47
2022-09-28T07:16:00.581Z,17.17
2022-09-28T07:18:29.874Z,16.33
2022-09-28T07:20:59.907Z,16.73
2022-09-28T07:23:29.754Z,16.90
2022-09-28T07:25:58.259Z,15.73
2022-09-28T07:28:26.636Z,16.70
2022-09-28T07:30:57.506Z,16.27
2022-09-28T07:33:32.482Z,15.33
2022-09-28T07:36:06.580Z,16.60
2022-09-28T07:38:34.654Z,18.00
2022-09-28T07:41:17.092Z,18.17
2022-09-28T07:43:45.381Z,17.43
2022-09-28T07:46:13.786Z,16.43
2022-09-28T07:48:45.871Z,16.13
2022-09-28T07:51:15.515Z,15.60
2022-09-28T07:53:43.521Z,14.97
2022-09-28T07:56:14.013Z,13.43
2022-09-28T07:58:43.074Z,13.30
2022-09-28T08:01:14.914Z,12.80
2022-09-28T08:03:45.292Z,12.33
2022-09-28T08:06:17.106Z,11.77
2022-09-28T08:08:46.060Z,13.53
2022-09-28T08:11:15.502Z,13.07
2022-09-28T08:13:44.052Z,13.87
2022-09-28T08:16:12.400Z,12.47
2022-09-28T08:18:40.793Z,10.80
2022-09-28T08:21:26.836Z,11.10
2022-09-28T08:23:56.223Z,10.87
2022-09-28T08:26:24.519Z,9.97
2022-09-28T08:28:52.868Z,10.40
2022-09-28T08:31:21.208Z,10.03
2022-09-28T08:33:53.080Z,10.93
2022-09-28T08:36:21.188Z,10.83
2022-09-28T08:38:49.457Z,10.10
2022-09-28T08:41:31.361Z,10.40
2022-09-28T08:44:13.793Z,11.10
2022-09-28T08:46:46.008Z,10.63
2022-09-28T08:49:25.505Z,12.27
2022-09-28T08:51:59.815Z,11.57
2022-09-28T08:54:36.760Z,12.53
2022-09-28T08:57:11.884Z,12.40
2022-09-28T08:59:49.459Z,12.33
2022-09-28T09:02:22.378Z,12.73
2022-09-28T09:04:52.350Z,12.00
2022-09-28T09:07:47.159Z,11.90
2022-09-28T09:10:30.196Z,11.13
2022-09-28T09:13:12.423Z,11.77
2022-09-28T09:15:49.569Z,11.63
2022-09-28T09:18:27.716Z,12.00
2022-09-28T09:20:59.025Z,12.80
2022-09-28T09:23:38.356Z,12.80
2022-09-28T09:26:17.362Z,12.27
2022-09-28T09:29:04.828Z,12.23
2022-09-28T09:31:49.767Z,12.07
2022-09-28T09:34:35.296Z,10.43
2022-09-28T09:37:17.913Z,10.50
2022-09-28T09:40:01.335Z,10.80
2022-09-28T09:42:41.882Z,11.73
2022-09-28T09:45:30.972Z,11.27
2022-09-28T09:48:03.663Z,11.93
2022-09-28T09:50:39.905Z,12.23
2022-09-28T09:53:17.504Z,12.03
2022-09-28T09:55:48.015Z,11.23
2022-09-28T09:58:21.780Z,12.77
2022-09-28T10:00:53.899Z,12.50
2022-09-28T10:03:25.425Z,12.23
2022-09-28T10:05:57.524Z,12.33
2022-09-28T10:08:27.796Z,11.37
2022-09-28T10:11:08.508Z,12.60
2022-09-28T10:13:37.046Z,12.50
2022-09-28T10:16:07.243Z,11.53
2022-09-28T10:18:36.134Z,9.83
2022-09-28T10:21:04.711Z,10.53
2022-09-28T10:23:35.299Z,11.23
2022-09-28T10:26:06.512Z,11.97
2022-09-28T10:28:41.866Z,10.57
2022-09-28T10:31:37.019Z,9.87
2022-09-28T10:34:05.563Z,10.03
2022-09-28T10:36:38.631Z,10.67
2022-09-28T10:39:07.320Z,9.87
2022-09-28T10:41:35.744Z,9.77
2022-09-28T10:44:08.775Z,9.30
2022-09-28T10:46:40.442Z,9.60
2022-09-28T10:49:14.015Z,9.83
2022-09-28T10:51:42.907Z,9.90
2022-09-28T10:54:16.749Z,9.70
2022-09-28T10:56:45.421Z,9.90
2022-09-28T10:59:38.495Z,8.97
2022-09-28T11:02:20.620Z,9.97
2022-09-28T11:04:54.080Z,8.87
2022-09-28T11:07:25.110Z,9.23
2022-09-28T11:09:54.643Z,10.77
2022-09-28T11:12:26.123Z,8.40
2022-09-28T11:14:59.540Z,9.30
2022-09-28T11:17:31.038Z,9.70
2022-09-28T11:20:00.849Z,9.50
2022-09-28T11:22:36.911Z,10.40
2022-09-28T11:25:22.261Z,10.77
2022-09-28T11:28:04.854Z,10.20
2022-09-28T11:30:40.556Z,10.43
2022-09-28T11:33:19.254Z,10.03
2022-09-28T11:35:51.544Z,10.87
2022-09-28T11:38:40.694Z,9.47
2022-09-28T11:41:23.971Z,10.90
2022-09-28T11:44:15.844Z,10.23
2022-09-28T11:46:57.175Z,10.33
2022-09-28T11:49:34.266Z,9.73
2022-09-28T11:52:07.920Z,10.20
2022-09-28T11:54:44.461Z,10.77
2022-09-28T11:57:18.600Z,11.17
2022-09-28T11:59:57.479Z,12.30
2022-09-28T12:02:30.865Z,12.17
2022-09-28T12:05:10.255Z,10.57
2022-09-28T12:07:42.129Z,11.27
2022-09-28T12:10:15.902Z,11.03
2022-09-28T12:12:50.643Z,10.43
2022-09-28T12:15:22.479Z,10.60
2022-09-28T12:17:55.221Z,10.77
2022-09-28T12:20:30.220Z,10.27
2022-09-28T12:23:06.061Z,10.47
2022-09-28T12:25:41.962Z,10.50
2022-09-28T12:28:19.362Z,10.77
2022-09-28T12:30:50.509Z,10.17
2022-09-28T12:33:18.559Z,9.47
2022-09-28T12:36:03.719Z,9.53
2022-09-28T12:39:15.096Z,9.00
2022-09-28T12:41:57.634Z,9.00
2022-09-28T12:44:41.713Z,9.03
2022-09-28T12:47:30.801Z,9.47
2022-09-28T12:53:20.147Z,9.30
2022-09-28T12:56:06.966Z,8.93
2022-09-28T12:58:49.311Z,9.33
2022-09-28T13:01:38.838Z,8.73
2022-09-28T13:04:35.968Z,8.70
2022-09-28T13:07:07.187Z,8.20
2022-09-28T13:09:48.233Z,7.90
2022-09-28T13:12:26.064Z,7.88
2022-09-28T13:15:16.075Z,7.73
2022-09-28T13:17:52.564Z,7.87
2022-09-28T13:20:32.312Z,8.10
2022-09-28T13:23:12.921Z,8.27
2022-09-28T13:25:45.943Z,8.03
2022-09-28T13:28:18.014Z,7.83
2022-09-28T13:30:47.207Z,7.70
2022-09-28T13:33:22.683Z,7.97
2022-09-28T13:35:50.785Z,8.10
2022-09-28T13:38:50.836Z,8.00
2022-09-28T13:41:29.039Z,7.67
2022-09-28T13:44:20.954Z,7.50
2022-09-28T13:47:00.634Z,7.43
2022-09-28T13:49:40.351Z,7.77
2022-09-28T13:52:13.612Z,6.43
2022-09-28T13:55:04.708Z,6.53
2022-09-28T13:57:42.253Z,6.80
2022-09-28T14:00:18.569Z,6.40
2022-09-28T14:02:49.351Z,6.00
2022-09-28T14:05:47.245Z,6.97
2022-09-28T14:08:34.949Z,6.13
2022-09-28T14:11:25.676Z,6.33
2022-09-28T14:14:03.226Z,6.00
2022-09-28T14:16:34.503Z,7.10
2022-09-28T14:19:08.385Z,6.20
2022-09-28T14:21:55.758Z,7.20
2022-09-28T14:24:41.992Z,6.23
2022-09-28T14:27:30.332Z,6.13
2022-09-28T14:30:18.317Z,5.50
2022-09-28T14:32:53.633Z,5.47
2022-09-28T14:35:29.638Z,6.13
2022-09-28T14:38:19.854Z,5.57
2022-09-28T14:41:12.731Z,5.23
2022-09-28T14:44:03.703Z,5.30
2022-09-28T14:46:38.036Z,5.93
2022-09-28T14:49:23.368Z,5.80
2022-09-28T14:52:11.892Z,5.77
2022-09-28T14:54:49.641Z,7.03
2022-09-28T14:57:22.997Z,6.33
2022-09-28T14:59:51.420Z,6.13
2022-09-28T15:02:28.069Z,7.47
2022-09-28T15:05:00.006Z,6.43
2022-09-28T15:07:30.264Z,7.10
2022-09-28T15:09:58.963Z,6.77
2022-09-28T15:12:29.715Z,7.17
2022-09-28T15:15:01.370Z,6.67
2022-09-28T15:17:38.492Z,6.83
2022-09-28T15:20:24.095Z,6.30
2022-09-28T15:22:57.168Z,6.60
2022-09-28T15:25:26.975Z,6.30
2022-09-28T15:27:56.719Z,6.90
2022-09-28T15:30:27.842Z,6.40
2022-09-28T15:33:18.699Z,6.23
2022-09-28T15:35:48.695Z,6.77
2022-09-28T15:38:18.390Z,7.37
2022-09-28T15:40:47.613Z,7.97
2022-09-28T15:43:26.952Z,8.30
2022-09-28T15:46:02.595Z,7.33
2022-09-28T15:48:38.287Z,8.17
2022-09-28T15:51:10.986Z,7.73
2022-09-28T15:53:44.112Z,8.35
2022-09-28T15:56:12.498Z,8.27
2022-09-28T15:58:41.226Z,7.50
2022-09-28T16:01:37.040Z,8.43
2022-09-28T16:04:38.457Z,7.47
2022-09-28T16:07:23.143Z,7.70
2022-09-28T16:10:02.811Z,8.13
2022-09-28T16:12:43.300Z,7.57
2022-09-28T16:15:20.348Z,7.50
2022-09-28T16:17:53.537Z,7.70
2022-09-28T16:20:29.193Z,7.83
2022-09-28T16:22:59.534Z,7.07
2022-09-28T16:25:28.341Z,7.50
2022-09-28T16:27:56.801Z,7.50
2022-09-28T16:30:27.204Z,7.30
2022-09-28T16:32:57.501Z,7.37
2022-09-28T16:35:29.860Z,7.63
2022-09-28T16:38:13.770Z,6.73
2022-09-28T16:40:42.999Z,7.10
2022-09-28T16:43:20.322Z,6.80
2022-09-28T16:45:48.461Z,8.30
2022-09-28T16:48:21.627Z,7.57
2022-09-28T16:50:52.060Z,7.33
2022-09-28T16:53:37.922Z,7.37
2022-09-28T16:56:06.892Z,6.77
2022-09-28T16:58:38.960Z,6.70
2022-09-28T17:01:08.701Z,8.17
2022-09-28T17:03:36.848Z,7.30
2022-09-28T17:06:07.422Z,7.80
2022-09-28T17:08:36.111Z,7.60
2022-09-28T17:11:24.040Z,7.73
2022-09-28T17:13:56.709Z,6.77
2022-09-28T17:16:50.974Z,7.57
2022-09-28T17:19:20.076Z,7.23
2022-09-28T17:21:51.188Z,7.80
2022-09-28T17:24:19.694Z,8.00
2022-09-28T17:26:50.143Z,8.47
2022-09-28T17:29:18.696Z,8.27
2022-09-28T17:31:47.888Z,8.03
2022-09-28T17:34:16.970Z,6.77
2022-09-28T17:36:45.892Z,8.07
2022-09-28T17:39:16.529Z,7.13
2022-09-28T17:41:45.244Z,7.43
2022-09-28T17:44:16.432Z,7.40
2022-09-28T17:46:48.548Z,7.50
2022-09-28T17:49:17.378Z,7.00
2022-09-28T17:51:45.688Z,7.63
2022-09-28T17:54:16.921Z,7.97
2022-09-28T17:56:46.195Z,8.40
2022-09-28T17:59:17.238Z,8.67
2022-09-28T18:01:45.360Z,8.87
2022-09-28T18:04:33.344Z,8.57
2022-09-28T18:07:02.024Z,7.57
2022-09-28T18:09:31.341Z,8.13
2022-09-28T18:12:01.566Z,7.87
2022-09-28T18:14:30.159Z,8.00
2022-09-28T18:16:58.423Z,8.30
2022-09-28T18:19:31.720Z,8.03
2022-09-28T18:22:01.326Z,8.97
2022-09-28T18:24:29.956Z,8.60
2022-09-28T18:26:59.312Z,8.40
2022-09-28T18:29:32.224Z,8.17
2022-09-28T18:32:01.508Z,8.13
2022-09-28T18:34:29.837Z,8.27
2022-09-28T18:36:58.140Z,8.80
2022-09-28T18:39:26.637Z,8.20
2022-09-28T18:41:54.933Z,7.13
2022-09-28T18:44:24.801Z,7.73
2022-09-28T18:46:53.146Z,7.50
2022-09-28T18:49:21.488Z,8.27
2022-09-28T18:51:49.895Z,7.20
2022-09-28T18:54:18.442Z,6.63
2022-09-28T18:56:46.607Z,7.20
2022-09-28T18:59:14.828Z,6.37
2022-09-28T19:01:44.421Z,5.90
2022-09-28T19:04:13.515Z,6.37
2022-09-28T19:06:44.458Z,6.17
2022-09-28T19:09:13.130Z,5.67
2022-09-28T19:11:41.294Z,5.87
2022-09-28T19:14:14.997Z,6.03
2022-09-28T19:16:45.442Z,5.57
2022-09-28T19:19:15.704Z,5.20
2022-09-28T19:21:44.271Z,5.80
2022-09-28T19:24:16.422Z,5.40
2022-09-28T19:26:46.287Z,5.07
2022-09-28T19:29:14.935Z,5.47
2022-09-28T19:31:44.358Z,5.70
2022-09-28T19:34:14.188Z,5.50
2022-09-28T19:36:42.816Z,5.17
2022-09-28T19:39:14.406Z,4.73
2022-09-28T19:41:47.774Z,5.23
2022-09-28T19:44:24.594Z,4.50
2022-09-28T19:46:55.613Z,4.83
2022-09-28T19:49:25.343Z,5.10
2022-09-28T19:52:14.295Z,4.87
2022-09-28T19:54:45.001Z,4.37
2022-09-28T19:57:15.967Z,4.10
2022-09-28T19:59:44.388Z,4.60
2022-09-28T20:02:14.090Z,4.93
2022-09-28T20:04:42.447Z,4.70
2022-09-28T20:07:10.787Z,4.33
2022-09-28T20:09:39.456Z,4.40
2022-09-28T20:12:07.453Z,4.73
2022-09-28T20:14:38.189Z,4.57
2022-09-28T20:17:08.737Z,4.63
2022-09-28T20:19:38.231Z,4.60
2022-09-28T20:22:06.568Z,4.33
2022-09-28T20:24:34.852Z,4.77
2022-09-28T20:27:03.176Z,4.67
2022-09-28T20:29:33.471Z,4.30
2022-09-28T20:32:02.117Z,4.50
2022-09-28T20:34:30.411Z,4.37
2022-09-28T20:36:59.889Z,5.00
2022-09-28T20:39:27.925Z,4.40
2022-09-28T20:41:56.266Z,4.60
2022-09-28T20:44:24.276Z,5.17
2022-09-28T20:46:53.035Z,5.07
2022-09-28T20:49:20.992Z,5.50
2022-09-28T20:51:49.317Z,5.10
2022-09-28T20:54:18.989Z,5.37
2022-09-28T20:56:48.308Z,5.30
2022-09-28T20:59:16.949Z,5.30
2022-09-28T21:01:45.431Z,5.13
2022-09-28T21:04:13.778Z,4.87
2022-09-28T21:06:43.060Z,5.27
2022-09-28T21:09:12.218Z,4.57
2022-09-28T21:11:41.774Z,5.17
2022-09-28T21:14:10.807Z,5.37
2022-09-28T21:16:39.726Z,4.97
2022-09-28T21:19:08.081Z,5.03
2022-09-28T21:21:36.158Z,5.60
2022-09-28T21:24:04.592Z,5.03
2022-09-28T21:26:33.426Z,5.80
2022-09-28T21:29:04.818Z,5.10
2022-09-28T21:31:41.846Z,5.03
2022-09-28T21:34:13.321Z,5.63
2022-09-28T21:36:43.256Z,4.80
2022-09-28T21:39:11.770Z,5.33
2022-09-28T21:41:40.062Z,5.23
2022-09-28T21:44:09.830Z,5.63
2022-09-28T21:46:39.245Z,5.13
2022-09-28T21:49:08.816Z,4.80
2022-09-28T21:51:37.996Z,5.40
2022-09-28T21:54:06.675Z,6.07
2022-09-28T21:56:35.000Z,5.43
2022-09-28T21:59:03.319Z,6.00
2022-09-28T22:01:32.792Z,5.57
2022-09-28T22:04:01.178Z,6.00
2022-09-28T22:06:29.801Z,5.57
2022-09-28T22:08:58.456Z,6.07
2022-09-28T22:11:27.518Z,5.53
2022-09-28T22:13:58.074Z,5.00
2022-09-28T22:16:28.409Z,5.83
2022-09-28T22:18:58.311Z,5.33
2022-09-28T22:21:27.938Z,5.13
2022-09-28T22:24:00.814Z,5.07
2022-09-28T22:26:30.293Z,5.07
2022-09-28T22:28:59.950Z,4.80
2022-09-28T22:31:30.370Z,4.90
2022-09-28T22:34:00.365Z,5.40
2022-09-28T22:36:28.964Z,5.20
2022-09-28T22:38:57.549Z,5.43
2022-09-28T22:41:26.039Z,4.83
2022-09-28T22:43:55.629Z,5.43
2022-09-28T22:46:25.961Z,5.20
2022-09-28T22:48:56.082Z,5.47
2022-09-28T22:51:27.119Z,5.40
2022-09-28T22:53:56.526Z,5.20
2022-09-28T22:56:25.093Z,5.23
2022-09-28T22:58:53.442Z,4.57
2022-09-28T23:01:23.382Z,5.40
2022-09-28T23:03:52.448Z,5.10
2022-09-28T23:06:21.891Z,4.57
2022-09-28T23:08:53.483Z,4.57
2022-09-28T23:11:21.800Z,4.83
2022-09-28T23:13:51.205Z,4.97
2022-09-28T23:16:19.485Z,5.20
2022-09-28T23:18:49.224Z,5.23
2022-09-28T23:21:18.225Z,4.87
2022-09-28T23:23:47.340Z,5.10
2022-09-28T23:26:18.821Z,5.17
2022-09-28T23:28:47.278Z,4.63
2022-09-28T23:31:17.586Z,5.40
2022-09-28T23:33:45.991Z,5.60
2022-09-28T23:36:14.407Z,4.90
2022-09-28T23:38:42.776Z,5.03
2022-09-28T23:41:11.299Z,5.07
2022-09-28T23:43:40.683Z,4.93
2022-09-28T23:46:09.043Z,4.70
2022-09-28T23:48:37.359Z,4.77
2022-09-28T23:51:05.709Z,5.07
2022-09-28T23:53:34.012Z,4.20
2022-09-28T23:56:02.509Z,3.93
2022-09-28T23:58:30.836Z,4.60
